sensor_id;sensor_type;location;lat;lon;timestamp;temperature;humidity
16736;DHT22;17990;49.548;9.730;2023-05-16T00:01:12;11.00;99.90
16736;DHT22;17990;49.548;9.730;2023-05-16T00:03:39;11.00;99.90
16736;DHT22;17990;49.548;9.730;2023-05-16T00:06:06;11.00;99.90
16736;DHT22;17990;49.548;9.730;2023-05-16T00:08:33;11.10;99.90
16736;DHT22;17990;49.548;9.730;2023-05-16T00:11:00;11.10;99.90
16736;DHT22;17990;49.548;9.730;2023-05-16T00:13:28;11.10;99.90
16736;DHT22;17990;49.548;9.730;2023-05-16T00:15:55;11.10;99.90
16736;DHT22;17990;49.548;9.730;2023-05-16T00:18:23;11.00;99.90
16736;DHT22;17990;49.548;9.730;2023-05-16T00:20:50;10.90;99.90
16736;DHT22;17990;49.548;9.730;2023-05-16T00:23:19;10.80;99.90
16736;DHT22;17990;49.548;9.730;2023-05-16T00:25:47;10.70;99.90
16736;DHT22;17990;49.548;9.730;2023-05-16T00:28:14;10.60;99.90
16736;DHT22;17990;49.548;9.730;2023-05-16T00:30:42;10.60;99.90
16736;DHT22;17990;49.548;9.730;2023-05-16T00:33:08;10.50;99.90
16736;DHT22;17990;49.548;9.730;2023-05-16T00:35:37;10.40;99.90
16736;DHT22;17990;49.548;9.730;2023-05-16T00:38:04;10.40;99.90
16736;DHT22;17990;49.548;9.730;2023-05-16T00:40:31;10.40;99.90
16736;DHT22;17990;49.548;9.730;2023-05-16T00:42:58;10.50;99.90
16736;DHT22;17990;49.548;9.730;2023-05-16T00:45:24;10.50;99.90
16736;DHT22;17990;49.548;9.730;2023-05-16T00:47:51;10.40;99.90
16736;DHT22;17990;49.548;9.730;2023-05-16T00:50:18;10.50;99.90
16736;DHT22;17990;49.548;9.730;2023-05-16T00:52:47;10.50;99.90
16736;DHT22;17990;49.548;9.730;2023-05-16T00:55:14;10.50;99.90
16736;DHT22;17990;49.548;9.730;2023-05-16T00:57:41;10.40;99.90
16736;DHT22;17990;49.548;9.730;2023-05-16T01:00:09;10.20;99.90
16736;DHT22;17990;49.548;9.730;2023-05-16T01:02:37;10.20;99.90
16736;DHT22;17990;49.548;9.730;2023-05-16T01:05:04;10.20;99.90
16736;DHT22;17990;49.548;9.730;2023-05-16T01:07:32;10.20;99.90
16736;DHT22;17990;49.548;9.730;2023-05-16T01:10:02;10.10;99.90
16736;DHT22;17990;49.548;9.730;2023-05-16T01:12:38;10.10;99.90
16736;DHT22;17990;49.548;9.730;2023-05-16T01:15:09;10.00;99.90
16736;DHT22;17990;49.548;9.730;2023-05-16T01:17:55;9.90;99.90
16736;DHT22;17990;49.548;9.730;2023-05-16T01:20:32;9.80;99.90
16736;DHT22;17990;49.548;9.730;2023-05-16T01:23:08;9.80;99.90
16736;DHT22;17990;49.548;9.730;2023-05-16T01:25:55;9.70;99.90
16736;DHT22;17990;49.548;9.730;2023-05-16T01:28:26;9.70;99.90
16736;DHT22;17990;49.548;9.730;2023-05-16T01:30:54;9.70;99.90
16736;DHT22;17990;49.548;9.730;2023-05-16T01:33:21;9.60;99.90
16736;DHT22;17990;49.548;9.730;2023-05-16T01:35:54;9.40;99.90
16736;DHT22;17990;49.548;9.730;2023-05-16T01:38:34;9.30;99.90
16736;DHT22;17990;49.548;9.730;2023-05-16T01:41:07;9.20;99.90
16736;DHT22;17990;49.548;9.730;2023-05-16T01:43:43;9.20;99.90
16736;DHT22;17990;49.548;9.730;2023-05-16T01:46:14;9.10;99.90
16736;DHT22;17990;49.548;9.730;2023-05-16T01:48:52;9.10;99.90
16736;DHT22;17990;49.548;9.730;2023-05-16T01:51:21;9.10;99.90
16736;DHT22;17990;49.548;9.730;2023-05-16T01:53:51;9.10;99.90
16736;DHT22;17990;49.548;9.730;2023-05-16T01:56:20;9.10;99.90
16736;DHT22;17990;49.548;9.730;2023-05-16T01:58:49;9.10;99.90
16736;DHT22;17990;49.548;9.730;2023-05-16T02:01:17;9.20;99.90
16736;DHT22;17990;49.548;9.730;2023-05-16T02:03:44;9.20;99.90
16736;DHT22;17990;49.548;9.730;2023-05-16T02:06:11;9.30;99.90
16736;DHT22;17990;49.548;9.730;2023-05-16T02:08:37;9.30;99.90
16736;DHT22;17990;49.548;9.730;2023-05-16T02:11:04;9.40;99.90
16736;DHT22;17990;49.548;9.730;2023-05-16T02:13:31;9.40;99.90
16736;DHT22;17990;49.548;9.730;2023-05-16T02:15:59;9.50;99.90
16736;DHT22;17990;49.548;9.730;2023-05-16T02:18:26;9.50;99.90
16736;DHT22;17990;49.548;9.730;2023-05-16T02:20:53;9.50;99.90
16736;DHT22;17990;49.548;9.730;2023-05-16T02:23:20;9.50;99.90
16736;DHT22;17990;49.548;9.730;2023-05-16T02:25:47;9.60;99.90
16736;DHT22;17990;49.548;9.730;2023-05-16T02:28:14;9.50;99.90
16736;DHT22;17990;49.548;9.730;2023-05-16T02:30:41;9.50;99.90
16736;DHT22;17990;49.548;9.730;2023-05-16T02:33:10;9.40;99.90
16736;DHT22;17990;49.548;9.730;2023-05-16T02:35:37;9.30;99.90
16736;DHT22;17990;49.548;9.730;2023-05-16T02:38:03;9.20;99.90
16736;DHT22;17990;49.548;9.730;2023-05-16T02:40:30;9.10;99.90
16736;DHT22;17990;49.548;9.730;2023-05-16T02:42:57;9.10;99.90
16736;DHT22;17990;49.548;9.730;2023-05-16T02:45:24;9.00;99.90
16736;DHT22;17990;49.548;9.730;2023-05-16T02:47:51;9.10;99.90
16736;DHT22;17990;49.548;9.730;2023-05-16T02:50:19;9.10;99.90
16736;DHT22;17990;49.548;9.730;2023-05-16T02:52:46;9.10;99.90
16736;DHT22;17990;49.548;9.730;2023-05-16T02:55:14;9.10;99.90
16736;DHT22;17990;49.548;9.730;2023-05-16T02:57:40;9.10;99.90
16736;DHT22;17990;49.548;9.730;2023-05-16T03:00:09;9.10;99.90
16736;DHT22;17990;49.548;9.730;2023-05-16T03:02:37;9.20;99.90
16736;DHT22;17990;49.548;9.730;2023-05-16T03:05:04;9.20;99.90
16736;DHT22;17990;49.548;9.730;2023-05-16T03:07:33;9.30;99.90
16736;DHT22;17990;49.548;9.730;2023-05-16T03:10:00;9.30;99.90
16736;DHT22;17990;49.548;9.730;2023-05-16T03:12:26;9.40;99.90
16736;DHT22;17990;49.548;9.730;2023-05-16T03:14:53;9.50;99.90
16736;DHT22;17990;49.548;9.730;2023-05-16T03:17:20;9.50;99.90
16736;DHT22;17990;49.548;9.730;2023-05-16T03:19:47;9.60;99.90
16736;DHT22;17990;49.548;9.730;2023-05-16T03:22:14;9.60;99.90
16736;DHT22;17990;49.548;9.730;2023-05-16T03:24:43;9.70;99.90
16736;DHT22;17990;49.548;9.730;2023-05-16T03:27:09;9.70;99.90
16736;DHT22;17990;49.548;9.730;2023-05-16T03:29:36;9.70;99.90
16736;DHT22;17990;49.548;9.730;2023-05-16T03:32:04;9.70;99.90
16736;DHT22;17990;49.548;9.730;2023-05-16T03:34:31;9.70;99.90
16736;DHT22;17990;49.548;9.730;2023-05-16T03:36:58;9.80;99.90
16736;DHT22;17990;49.548;9.730;2023-05-16T03:39:25;9.80;99.90
16736;DHT22;17990;49.548;9.730;2023-05-16T03:41:53;9.80;99.90
16736;DHT22;17990;49.548;9.730;2023-05-16T03:44:21;9.80;99.90
16736;DHT22;17990;49.548;9.730;2023-05-16T03:46:49;9.80;99.90
16736;DHT22;17990;49.548;9.730;2023-05-16T03:49:17;9.90;99.90
16736;DHT22;17990;49.548;9.730;2023-05-16T03:51:45;9.80;99.90
16736;DHT22;17990;49.548;9.730;2023-05-16T03:54:12;9.80;99.90
16736;DHT22;17990;49.548;9.730;2023-05-16T03:56:39;9.80;99.90
16736;DHT22;17990;49.548;9.730;2023-05-16T03:59:07;9.80;99.90
16736;DHT22;17990;49.548;9.730;2023-05-16T04:01:34;9.80;99.90
16736;DHT22;17990;49.548;9.730;2023-05-16T04:04:01;9.90;99.90
16736;DHT22;17990;49.548;9.730;2023-05-16T04:06:28;9.90;99.90
16736;DHT22;17990;49.548;9.730;2023-05-16T04:08:56;10.00;99.90
16736;DHT22;17990;49.548;9.730;2023-05-16T04:11:23;10.00;99.90
16736;DHT22;17990;49.548;9.730;2023-05-16T04:13:51;10.00;99.90
16736;DHT22;17990;49.548;9.730;2023-05-16T04:16:19;10.00;99.90
16736;DHT22;17990;49.548;9.730;2023-05-16T04:18:46;9.90;99.90
16736;DHT22;17990;49.548;9.730;2023-05-16T04:21:13;10.00;99.90
16736;DHT22;17990;49.548;9.730;2023-05-16T04:23:40;10.00;99.90
16736;DHT22;17990;49.548;9.730;2023-05-16T04:26:07;10.10;99.90
16736;DHT22;17990;49.548;9.730;2023-05-16T04:28:34;10.10;99.90
16736;DHT22;17990;49.548;9.730;2023-05-16T04:31:01;10.00;99.90
16736;DHT22;17990;49.548;9.730;2023-05-16T04:33:29;10.10;99.90
16736;DHT22;17990;49.548;9.730;2023-05-16T04:35:57;10.10;99.90
16736;DHT22;17990;49.548;9.730;2023-05-16T04:38:24;10.30;99.90
16736;DHT22;17990;49.548;9.730;2023-05-16T04:40:51;10.30;99.90
16736;DHT22;17990;49.548;9.730;2023-05-16T04:43:19;10.40;99.90
16736;DHT22;17990;49.548;9.730;2023-05-16T04:45:46;10.40;99.90
16736;DHT22;17990;49.548;9.730;2023-05-16T04:48:13;10.40;99.90
16736;DHT22;17990;49.548;9.730;2023-05-16T04:50:41;10.40;99.90
16736;DHT22;17990;49.548;9.730;2023-05-16T04:53:08;10.50;99.90
16736;DHT22;17990;49.548;9.730;2023-05-16T04:55:35;10.50;99.90
16736;DHT22;17990;49.548;9.730;2023-05-16T04:58:01;10.60;99.90
16736;DHT22;17990;49.548;9.730;2023-05-16T05:00:28;10.60;99.90
16736;DHT22;17990;49.548;9.730;2023-05-16T05:02:56;10.60;99.90
16736;DHT22;17990;49.548;9.730;2023-05-16T05:05:23;10.70;99.90
16736;DHT22;17990;49.548;9.730;2023-05-16T05:07:51;10.70;99.90
16736;DHT22;17990;49.548;9.730;2023-05-16T05:10:18;10.80;99.90
16736;DHT22;17990;49.548;9.730;2023-05-16T05:12:45;10.80;99.90
16736;DHT22;17990;49.548;9.730;2023-05-16T05:15:12;10.90;99.90
16736;DHT22;17990;49.548;9.730;2023-05-16T05:17:39;11.00;99.90
16736;DHT22;17990;49.548;9.730;2023-05-16T05:20:06;11.10;99.90
16736;DHT22;17990;49.548;9.730;2023-05-16T05:22:34;11.10;99.90
16736;DHT22;17990;49.548;9.730;2023-05-16T05:25:05;11.30;99.90
16736;DHT22;17990;49.548;9.730;2023-05-16T05:27:32;11.40;99.90
16736;DHT22;17990;49.548;9.730;2023-05-16T05:29:59;11.40;99.90
16736;DHT22;17990;49.548;9.730;2023-05-16T05:32:26;11.50;99.90
16736;DHT22;17990;49.548;9.730;2023-05-16T05:34:53;11.50;99.90
16736;DHT22;17990;49.548;9.730;2023-05-16T05:37:20;11.60;99.90
16736;DHT22;17990;49.548;9.730;2023-05-16T05:39:47;11.70;99.90
16736;DHT22;17990;49.548;9.730;2023-05-16T05:42:15;11.70;99.90
16736;DHT22;17990;49.548;9.730;2023-05-16T05:44:42;11.70;99.90
16736;DHT22;17990;49.548;9.730;2023-05-16T05:47:09;11.80;99.90
16736;DHT22;17990;49.548;9.730;2023-05-16T05:49:36;11.80;99.90
16736;DHT22;17990;49.548;9.730;2023-05-16T05:52:03;11.80;99.90
16736;DHT22;17990;49.548;9.730;2023-05-16T05:54:30;11.70;99.90
16736;DHT22;17990;49.548;9.730;2023-05-16T05:56:59;11.70;99.90
16736;DHT22;17990;49.548;9.730;2023-05-16T05:59:27;11.70;99.90
16736;DHT22;17990;49.548;9.730;2023-05-16T06:01:54;11.70;99.90
16736;DHT22;17990;49.548;9.730;2023-05-16T06:04:22;11.80;99.90
16736;DHT22;17990;49.548;9.730;2023-05-16T06:06:49;11.80;99.90
16736;DHT22;17990;49.548;9.730;2023-05-16T06:09:17;11.80;99.90
16736;DHT22;17990;49.548;9.730;2023-05-16T06:11:43;11.80;99.90
16736;DHT22;17990;49.548;9.730;2023-05-16T06:14:10;11.80;99.90
16736;DHT22;17990;49.548;9.730;2023-05-16T06:16:39;11.70;99.90
16736;DHT22;17990;49.548;9.730;2023-05-16T06:19:05;11.60;99.90
16736;DHT22;17990;49.548;9.730;2023-05-16T06:21:32;11.60;99.90
16736;DHT22;17990;49.548;9.730;2023-05-16T06:23:59;11.60;99.90
16736;DHT22;17990;49.548;9.730;2023-05-16T06:26:26;11.50;99.90
16736;DHT22;17990;49.548;9.730;2023-05-16T06:28:53;11.50;99.90
16736;DHT22;17990;49.548;9.730;2023-05-16T06:31:20;11.40;99.90
16736;DHT22;17990;49.548;9.730;2023-05-16T06:33:48;11.40;99.90
16736;DHT22;17990;49.548;9.730;2023-05-16T06:36:15;11.30;99.90
16736;DHT22;17990;49.548;9.730;2023-05-16T06:38:42;11.30;99.90
16736;DHT22;17990;49.548;9.730;2023-05-16T06:41:09;11.40;99.90
16736;DHT22;17990;49.548;9.730;2023-05-16T06:43:36;11.30;99.90
16736;DHT22;17990;49.548;9.730;2023-05-16T06:46:03;11.40;99.90
16736;DHT22;17990;49.548;9.730;2023-05-16T06:48:30;11.40;99.90
16736;DHT22;17990;49.548;9.730;2023-05-16T06:50:58;11.50;99.90
16736;DHT22;17990;49.548;9.730;2023-05-16T06:53:25;11.50;99.90
16736;DHT22;17990;49.548;9.730;2023-05-16T06:55:53;11.50;99.90
16736;DHT22;17990;49.548;9.730;2023-05-16T06:58:20;11.60;99.90
16736;DHT22;17990;49.548;9.730;2023-05-16T07:00:48;11.60;99.90
16736;DHT22;17990;49.548;9.730;2023-05-16T07:03:15;11.60;99.90
16736;DHT22;17990;49.548;9.730;2023-05-16T07:05:43;11.70;99.90
16736;DHT22;17990;49.548;9.730;2023-05-16T07:08:11;11.70;99.90
16736;DHT22;17990;49.548;9.730;2023-05-16T07:10:38;11.70;99.90
16736;DHT22;17990;49.548;9.730;2023-05-16T07:13:05;11.80;99.90
16736;DHT22;17990;49.548;9.730;2023-05-16T07:15:32;11.70;99.90
16736;DHT22;17990;49.548;9.730;2023-05-16T07:17:59;11.80;99.90
16736;DHT22;17990;49.548;9.730;2023-05-16T07:20:26;11.80;99.90
16736;DHT22;17990;49.548;9.730;2023-05-16T07:22:53;11.90;99.90
16736;DHT22;17990;49.548;9.730;2023-05-16T07:25:23;12.00;99.90
16736;DHT22;17990;49.548;9.730;2023-05-16T07:27:50;11.90;99.90
16736;DHT22;17990;49.548;9.730;2023-05-16T07:30:17;11.90;99.90
16736;DHT22;17990;49.548;9.730;2023-05-16T07:32:45;11.90;99.90
16736;DHT22;17990;49.548;9.730;2023-05-16T07:35:12;11.90;99.90
16736;DHT22;17990;49.548;9.730;2023-05-16T07:37:39;11.90;99.90
16736;DHT22;17990;49.548;9.730;2023-05-16T07:40:08;11.80;99.90
16736;DHT22;17990;49.548;9.730;2023-05-16T07:42:36;11.80;99.90
16736;DHT22;17990;49.548;9.730;2023-05-16T07:45:04;11.90;99.90
16736;DHT22;17990;49.548;9.730;2023-05-16T07:47:32;11.90;99.90
16736;DHT22;17990;49.548;9.730;2023-05-16T07:49:59;12.00;99.90
16736;DHT22;17990;49.548;9.730;2023-05-16T07:52:26;12.10;99.90
16736;DHT22;17990;49.548;9.730;2023-05-16T07:54:53;12.20;99.90
16736;DHT22;17990;49.548;9.730;2023-05-16T07:57:20;12.20;99.90
16736;DHT22;17990;49.548;9.730;2023-05-16T07:59:49;12.30;99.90
16736;DHT22;17990;49.548;9.730;2023-05-16T08:02:17;12.40;99.90
16736;DHT22;17990;49.548;9.730;2023-05-16T08:04:44;12.40;99.90
16736;DHT22;17990;49.548;9.730;2023-05-16T08:07:10;12.50;99.90
16736;DHT22;17990;49.548;9.730;2023-05-16T08:09:37;12.60;99.90
16736;DHT22;17990;49.548;9.730;2023-05-16T08:12:05;12.70;99.90
16736;DHT22;17990;49.548;9.730;2023-05-16T08:14:32;12.80;99.90
16736;DHT22;17990;49.548;9.730;2023-05-16T08:17:00;12.90;99.90
16736;DHT22;17990;49.548;9.730;2023-05-16T08:19:27;13.00;99.90
16736;DHT22;17990;49.548;9.730;2023-05-16T08:21:54;13.00;99.90
16736;DHT22;17990;49.548;9.730;2023-05-16T08:24:21;13.10;99.90
16736;DHT22;17990;49.548;9.730;2023-05-16T08:26:48;13.20;99.90
16736;DHT22;17990;49.548;9.730;2023-05-16T08:29:15;13.20;99.90
16736;DHT22;17990;49.548;9.730;2023-05-16T08:31:42;13.10;99.90
16736;DHT22;17990;49.548;9.730;2023-05-16T08:34:10;13.00;99.90
16736;DHT22;17990;49.548;9.730;2023-05-16T08:36:37;12.90;99.90
16736;DHT22;17990;49.548;9.730;2023-05-16T08:39:04;13.00;99.90
16736;DHT22;17990;49.548;9.730;2023-05-16T08:41:31;12.90;99.90
16736;DHT22;17990;49.548;9.730;2023-05-16T08:43:59;12.90;99.90
16736;DHT22;17990;49.548;9.730;2023-05-16T08:46:27;13.00;99.90
16736;DHT22;17990;49.548;9.730;2023-05-16T08:48:58;13.00;99.90
16736;DHT22;17990;49.548;9.730;2023-05-16T08:51:31;13.00;99.90
16736;DHT22;17990;49.548;9.730;2023-05-16T08:54:03;13.10;99.90
16736;DHT22;17990;49.548;9.730;2023-05-16T08:56:33;13.10;99.90
16736;DHT22;17990;49.548;9.730;2023-05-16T08:59:01;13.20;99.90
16736;DHT22;17990;49.548;9.730;2023-05-16T09:01:29;13.30;99.90
16736;DHT22;17990;49.548;9.730;2023-05-16T09:03:57;13.40;99.90
16736;DHT22;17990;49.548;9.730;2023-05-16T09:06:26;13.30;99.90
16736;DHT22;17990;49.548;9.730;2023-05-16T09:08:53;13.40;99.90
16736;DHT22;17990;49.548;9.730;2023-05-16T09:11:20;13.60;99.90
16736;DHT22;17990;49.548;9.730;2023-05-16T09:13:47;13.70;99.90
16736;DHT22;17990;49.548;9.730;2023-05-16T09:16:16;13.70;99.90
16736;DHT22;17990;49.548;9.730;2023-05-16T09:18:45;13.50;99.90
16736;DHT22;17990;49.548;9.730;2023-05-16T09:21:13;13.50;99.90
16736;DHT22;17990;49.548;9.730;2023-05-16T09:23:42;13.40;99.90
16736;DHT22;17990;49.548;9.730;2023-05-16T09:26:11;13.30;99.90
16736;DHT22;17990;49.548;9.730;2023-05-16T09:28:37;13.30;99.90
16736;DHT22;17990;49.548;9.730;2023-05-16T09:31:18;13.30;99.90
16736;DHT22;17990;49.548;9.730;2023-05-16T09:33:47;13.30;99.90
16736;DHT22;17990;49.548;9.730;2023-05-16T09:36:15;13.30;99.90
16736;DHT22;17990;49.548;9.730;2023-05-16T09:38:43;13.40;99.90
16736;DHT22;17990;49.548;9.730;2023-05-16T09:41:10;13.60;99.90
16736;DHT22;17990;49.548;9.730;2023-05-16T09:43:39;13.90;99.90
16736;DHT22;17990;49.548;9.730;2023-05-16T09:46:06;14.20;99.90
16736;DHT22;17990;49.548;9.730;2023-05-16T09:48:33;14.60;99.90
16736;DHT22;17990;49.548;9.730;2023-05-16T09:51:00;14.80;99.90
16736;DHT22;17990;49.548;9.730;2023-05-16T09:53:32;15.10;99.90
16736;DHT22;17990;49.548;9.730;2023-05-16T09:56:01;15.20;99.90
16736;DHT22;17990;49.548;9.730;2023-05-16T09:58:30;15.40;99.90
16736;DHT22;17990;49.548;9.730;2023-05-16T10:00:59;15.40;99.90
16736;DHT22;17990;49.548;9.730;2023-05-16T10:03:27;15.10;99.90
16736;DHT22;17990;49.548;9.730;2023-05-16T10:05:55;15.10;99.90
16736;DHT22;17990;49.548;9.730;2023-05-16T10:08:23;14.90;99.90
16736;DHT22;17990;49.548;9.730;2023-05-16T10:10:53;14.70;99.90
16736;DHT22;17990;49.548;9.730;2023-05-16T10:13:24;14.70;99.90
16736;DHT22;17990;49.548;9.730;2023-05-16T10:15:55;14.60;99.90
16736;DHT22;17990;49.548;9.730;2023-05-16T10:18:28;14.50;99.90
16736;DHT22;17990;49.548;9.730;2023-05-16T10:20:57;14.60;99.90
16736;DHT22;17990;49.548;9.730;2023-05-16T10:23:27;14.60;99.90
16736;DHT22;17990;49.548;9.730;2023-05-16T10:25:55;14.70;99.90
16736;DHT22;17990;49.548;9.730;2023-05-16T10:28:24;14.90;99.90
16736;DHT22;17990;49.548;9.730;2023-05-16T10:30:53;15.00;99.90
16736;DHT22;17990;49.548;9.730;2023-05-16T10:33:20;15.10;99.90
16736;DHT22;17990;49.548;9.730;2023-05-16T10:35:48;15.40;99.90
16736;DHT22;17990;49.548;9.730;2023-05-16T10:38:17;15.70;99.90
16736;DHT22;17990;49.548;9.730;2023-05-16T10:40:46;15.90;99.90
16736;DHT22;17990;49.548;9.730;2023-05-16T10:43:23;16.10;99.90
16736;DHT22;17990;49.548;9.730;2023-05-16T10:45:54;16.40;99.90
16736;DHT22;17990;49.548;9.730;2023-05-16T10:48:28;16.50;99.90
16736;DHT22;17990;49.548;9.730;2023-05-16T10:50:56;16.30;99.90
16736;DHT22;17990;49.548;9.730;2023-05-16T10:53:29;16.20;99.90
16736;DHT22;17990;49.548;9.730;2023-05-16T10:56:07;16.20;99.90
16736;DHT22;17990;49.548;9.730;2023-05-16T10:58:44;16.30;99.90
16736;DHT22;17990;49.548;9.730;2023-05-16T11:01:20;16.20;99.90
16736;DHT22;17990;49.548;9.730;2023-05-16T11:04:08;15.90;99.90
16736;DHT22;17990;49.548;9.730;2023-05-16T11:06:44;15.50;99.90
16736;DHT22;17990;49.548;9.730;2023-05-16T11:09:23;15.40;99.90
16736;DHT22;17990;49.548;9.730;2023-05-16T11:12:00;15.80;99.90
16736;DHT22;17990;49.548;9.730;2023-05-16T11:14:36;16.00;99.90
16736;DHT22;17990;49.548;9.730;2023-05-16T11:17:09;16.20;99.90
16736;DHT22;17990;49.548;9.730;2023-05-16T11:19:42;16.10;99.90
16736;DHT22;17990;49.548;9.730;2023-05-16T11:22:23;15.90;99.90
16736;DHT22;17990;49.548;9.730;2023-05-16T11:24:53;15.70;99.90
16736;DHT22;17990;49.548;9.730;2023-05-16T11:27:23;15.60;99.90
16736;DHT22;17990;49.548;9.730;2023-05-16T11:29:56;15.40;99.90
16736;DHT22;17990;49.548;9.730;2023-05-16T11:32:25;15.20;99.90
16736;DHT22;17990;49.548;9.730;2023-05-16T11:34:52;15.00;99.90
16736;DHT22;17990;49.548;9.730;2023-05-16T11:37:19;14.80;99.90
16736;DHT22;17990;49.548;9.730;2023-05-16T11:39:47;14.50;99.90
16736;DHT22;17990;49.548;9.730;2023-05-16T11:42:15;14.10;99.90
16736;DHT22;17990;49.548;9.730;2023-05-16T11:44:42;13.90;99.90
16736;DHT22;17990;49.548;9.730;2023-05-16T11:47:11;13.60;99.90
16736;DHT22;17990;49.548;9.730;2023-05-16T11:49:38;13.60;99.90
16736;DHT22;17990;49.548;9.730;2023-05-16T11:52:07;13.60;99.90
16736;DHT22;17990;49.548;9.730;2023-05-16T11:54:35;13.50;99.90
16736;DHT22;17990;49.548;9.730;2023-05-16T11:57:03;13.50;99.90
16736;DHT22;17990;49.548;9.730;2023-05-16T11:59:30;13.50;99.90
16736;DHT22;17990;49.548;9.730;2023-05-16T12:01:57;13.50;99.90
16736;DHT22;17990;49.548;9.730;2023-05-16T12:04:25;13.40;99.90
16736;DHT22;17990;49.548;9.730;2023-05-16T12:07:00;13.50;99.90
16736;DHT22;17990;49.548;9.730;2023-05-16T12:09:27;13.60;99.90
16736;DHT22;17990;49.548;9.730;2023-05-16T12:11:54;13.70;99.90
16736;DHT22;17990;49.548;9.730;2023-05-16T12:14:21;14.00;99.90
16736;DHT22;17990;49.548;9.730;2023-05-16T12:16:51;14.30;99.90
16736;DHT22;17990;49.548;9.730;2023-05-16T12:19:18;14.50;99.90
16736;DHT22;17990;49.548;9.730;2023-05-16T12:21:51;14.70;99.90
16736;DHT22;17990;49.548;9.730;2023-05-16T12:24:19;14.70;99.90
16736;DHT22;17990;49.548;9.730;2023-05-16T12:26:46;14.80;99.90
16736;DHT22;17990;49.548;9.730;2023-05-16T12:29:13;14.90;99.90
16736;DHT22;17990;49.548;9.730;2023-05-16T12:31:40;14.90;99.90
16736;DHT22;17990;49.548;9.730;2023-05-16T12:34:17;15.00;99.90
16736;DHT22;17990;49.548;9.730;2023-05-16T12:36:49;14.80;99.90
16736;DHT22;17990;49.548;9.730;2023-05-16T12:39:18;14.60;99.90
16736;DHT22;17990;49.548;9.730;2023-05-16T12:41:45;14.50;99.90
16736;DHT22;17990;49.548;9.730;2023-05-16T12:44:14;14.50;99.90
16736;DHT22;17990;49.548;9.730;2023-05-16T12:46:44;14.50;99.90
16736;DHT22;17990;49.548;9.730;2023-05-16T12:49:13;14.80;99.90
16736;DHT22;17990;49.548;9.730;2023-05-16T12:51:49;14.90;99.90
16736;DHT22;17990;49.548;9.730;2023-05-16T12:54:16;15.40;99.90
16736;DHT22;17990;49.548;9.730;2023-05-16T12:56:44;15.80;99.90
16736;DHT22;17990;49.548;9.730;2023-05-16T12:59:11;16.20;99.90
16736;DHT22;17990;49.548;9.730;2023-05-16T13:01:38;16.00;99.90
16736;DHT22;17990;49.548;9.730;2023-05-16T13:04:06;15.80;99.90
16736;DHT22;17990;49.548;9.730;2023-05-16T13:06:33;15.90;99.90
16736;DHT22;17990;49.548;9.730;2023-05-16T13:09:03;16.00;99.90
16736;DHT22;17990;49.548;9.730;2023-05-16T13:11:30;16.10;99.90
16736;DHT22;17990;49.548;9.730;2023-05-16T13:13:57;16.10;99.90
16736;DHT22;17990;49.548;9.730;2023-05-16T13:16:25;16.40;99.90
16736;DHT22;17990;49.548;9.730;2023-05-16T13:18:52;16.60;99.90
16736;DHT22;17990;49.548;9.730;2023-05-16T13:21:19;16.60;99.90
16736;DHT22;17990;49.548;9.730;2023-05-16T13:23:46;16.50;99.90
16736;DHT22;17990;49.548;9.730;2023-05-16T13:26:14;16.40;99.90
16736;DHT22;17990;49.548;9.730;2023-05-16T13:28:41;16.60;99.90
16736;DHT22;17990;49.548;9.730;2023-05-16T13:31:08;16.80;99.90
16736;DHT22;17990;49.548;9.730;2023-05-16T13:33:35;17.00;99.90
16736;DHT22;17990;49.548;9.730;2023-05-16T13:36:03;16.80;99.90
16736;DHT22;17990;49.548;9.730;2023-05-16T13:38:30;16.70;99.90
16736;DHT22;17990;49.548;9.730;2023-05-16T13:40:57;16.50;99.90
16736;DHT22;17990;49.548;9.730;2023-05-16T13:43:25;16.80;99.90
16736;DHT22;17990;49.548;9.730;2023-05-16T13:45:52;17.20;99.90
16736;DHT22;17990;49.548;9.730;2023-05-16T13:48:19;17.20;99.90
16736;DHT22;17990;49.548;9.730;2023-05-16T13:50:46;17.20;99.90
16736;DHT22;17990;49.548;9.730;2023-05-16T13:53:13;17.20;99.90
16736;DHT22;17990;49.548;9.730;2023-05-16T13:55:40;17.10;99.90
16736;DHT22;17990;49.548;9.730;2023-05-16T13:58:07;17.00;99.90
16736;DHT22;17990;49.548;9.730;2023-05-16T14:00:36;16.90;99.90
16736;DHT22;17990;49.548;9.730;2023-05-16T14:03:02;17.00;99.90
16736;DHT22;17990;49.548;9.730;2023-05-16T14:05:29;17.30;99.90
16736;DHT22;17990;49.548;9.730;2023-05-16T14:07:57;17.30;99.90
16736;DHT22;17990;49.548;9.730;2023-05-16T14:10:23;17.40;99.90
16736;DHT22;17990;49.548;9.730;2023-05-16T14:12:50;17.50;99.90
16736;DHT22;17990;49.548;9.730;2023-05-16T14:15:17;17.50;99.90
16736;DHT22;17990;49.548;9.730;2023-05-16T14:17:46;17.40;99.90
16736;DHT22;17990;49.548;9.730;2023-05-16T14:20:13;17.60;99.90
16736;DHT22;17990;49.548;9.730;2023-05-16T14:22:40;17.70;99.90
16736;DHT22;17990;49.548;9.730;2023-05-16T14:25:07;17.80;99.90
16736;DHT22;17990;49.548;9.730;2023-05-16T14:27:34;17.90;99.90
16736;DHT22;17990;49.548;9.730;2023-05-16T14:30:01;17.70;99.90
16736;DHT22;17990;49.548;9.730;2023-05-16T14:32:29;17.30;99.90
16736;DHT22;17990;49.548;9.730;2023-05-16T14:34:57;17.10;99.90
16736;DHT22;17990;49.548;9.730;2023-05-16T14:37:24;17.00;99.90
16736;DHT22;17990;49.548;9.730;2023-05-16T14:39:51;17.30;99.90
16736;DHT22;17990;49.548;9.730;2023-05-16T14:42:18;17.70;99.90
16736;DHT22;17990;49.548;9.730;2023-05-16T14:44:45;17.60;99.90
16736;DHT22;17990;49.548;9.730;2023-05-16T14:47:12;17.40;99.90
16736;DHT22;17990;49.548;9.730;2023-05-16T14:49:39;17.40;99.90
16736;DHT22;17990;49.548;9.730;2023-05-16T14:52:08;17.30;99.90
16736;DHT22;17990;49.548;9.730;2023-05-16T14:54:35;17.20;99.90
16736;DHT22;17990;49.548;9.730;2023-05-16T14:57:02;17.10;99.90
16736;DHT22;17990;49.548;9.730;2023-05-16T14:59:29;17.50;99.90
16736;DHT22;17990;49.548;9.730;2023-05-16T15:01:56;17.90;99.90
16736;DHT22;17990;49.548;9.730;2023-05-16T15:04:23;17.90;99.90
16736;DHT22;17990;49.548;9.730;2023-05-16T15:06:50;17.80;99.90
16736;DHT22;17990;49.548;9.730;2023-05-16T15:09:19;17.80;99.90
16736;DHT22;17990;49.548;9.730;2023-05-16T15:11:45;17.60;99.90
16736;DHT22;17990;49.548;9.730;2023-05-16T15:14:12;17.40;99.90
16736;DHT22;17990;49.548;9.730;2023-05-16T15:16:39;17.40;99.90
16736;DHT22;17990;49.548;9.730;2023-05-16T15:19:06;17.40;99.90
16736;DHT22;17990;49.548;9.730;2023-05-16T15:21:33;17.00;99.90
16736;DHT22;17990;49.548;9.730;2023-05-16T15:24:00;17.00;99.90
16736;DHT22;17990;49.548;9.730;2023-05-16T15:26:28;16.90;99.90
16736;DHT22;17990;49.548;9.730;2023-05-16T15:28:55;16.50;99.90
16736;DHT22;17990;49.548;9.730;2023-05-16T15:31:22;16.60;99.90
16736;DHT22;17990;49.548;9.730;2023-05-16T15:33:52;16.90;99.90
16736;DHT22;17990;49.548;9.730;2023-05-16T15:36:51;17.20;99.90
16736;DHT22;17990;49.548;9.730;2023-05-16T15:39:17;17.50;99.20